Time;durP1;ratioP1;P1;durP2;ratioP2;P2;SDS_P1;SDS_P2;PMS_P1;PMS_P2;Temp;Humidity;BMP_temperature;BMP_pressure;BME280_temperature;BME280_humidity;BME280_pressure;Samples;Min_cycle;Max_cycle;Signal;HPM_P1;HPM_P2
2023/06/26 00:02:14;;;;;;;;;;;26.00;50.60;;;;;;5048630;28;20003;-70
2023/06/26 00:04:40;;;;;;;;;;;25.90;50.50;;;;;;5052883;28;19996;-69
2023/06/26 00:07:07;;;;;;;;;;;25.90;50.60;;;;;;5058705;28;19979;-69
2023/06/26 00:09:34;;;;;;;;;;;25.80;50.50;;;;;;5052275;28;20342;-70
2023/06/26 00:12:00;;;;;;;;;;;25.80;50.50;;;;;;5057935;28;19990;-70
2023/06/26 00:14:27;;;;;;;;;;;25.80;50.70;;;;;;5057987;28;19991;-69
2023/06/26 00:16:55;;;;;;;;;;;25.70;50.80;;;;;;5053838;28;20452;-70
2023/06/26 00:19:21;;;;;;;;;;;25.70;50.80;;;;;;5049716;28;19975;-69
2023/06/26 00:21:48;;;;;;;;;;;25.60;50.70;;;;;;5054568;28;19987;-70
2023/06/26 00:24:15;;;;;;;;;;;25.60;50.90;;;;;;5055290;28;20018;-70
2023/06/26 00:26:41;;;;;;;;;;;25.60;50.90;;;;;;5047255;28;19980;-69
2023/06/26 00:29:08;;;;;;;;;;;25.50;50.90;;;;;;5059678;28;20040;-69
2023/06/26 00:31:35;;;;;;;;;;;25.50;51.10;;;;;;5051782;28;19996;-70
2023/06/26 00:34:03;;;;;;;;;;;25.50;51.20;;;;;;5054047;28;19987;-70
2023/06/26 00:36:29;;;;;;;;;;;25.40;51.20;;;;;;5050114;28;19987;-70
2023/06/26 00:38:56;;;;;;;;;;;25.30;51.20;;;;;;5057413;28;19983;-70
2023/06/26 00:41:22;;;;;;;;;;;25.30;51.30;;;;;;5049198;28;20344;-70
2023/06/26 00:43:49;;;;;;;;;;;25.30;51.30;;;;;;5057582;28;20737;-70
2023/06/26 00:46:15;;;;;;;;;;;25.30;51.40;;;;;;5052930;28;20554;-70
2023/06/26 00:48:43;;;;;;;;;;;25.20;51.50;;;;;;5055069;28;19979;-70
2023/06/26 00:51:12;;;;;;;;;;;25.10;51.50;;;;;;5048815;28;19979;-69
2023/06/26 00:53:38;;;;;;;;;;;25.20;51.70;;;;;;5054406;28;20407;-69
2023/06/26 00:56:06;;;;;;;;;;;25.10;51.60;;;;;;5064758;28;20338;-69
2023/06/26 00:58:32;;;;;;;;;;;25.10;51.70;;;;;;5051853;28;19979;-69
2023/06/26 01:01:00;;;;;;;;;;;25.00;51.70;;;;;;5058648;28;19996;-69
2023/06/26 01:03:27;;;;;;;;;;;25.00;51.80;;;;;;5053724;28;19998;-69
2023/06/26 01:05:55;;;;;;;;;;;24.90;51.80;;;;;;5058576;28;19983;-70
2023/06/26 01:08:23;;;;;;;;;;;24.90;51.90;;;;;;5057378;28;19975;-70
2023/06/26 01:10:50;;;;;;;;;;;24.90;52.00;;;;;;5051473;28;19980;-70
2023/06/26 01:13:17;;;;;;;;;;;24.80;52.00;;;;;;5060511;28;19982;-69
2023/06/26 01:15:43;;;;;;;;;;;24.80;52.00;;;;;;5062290;28;20007;-70
2023/06/26 01:18:10;;;;;;;;;;;24.70;52.00;;;;;;5060377;28;20061;-69
2023/06/26 01:20:39;;;;;;;;;;;24.70;52.10;;;;;;5059106;28;20334;-69
2023/06/26 01:23:08;;;;;;;;;;;24.70;52.20;;;;;;5047992;28;20492;-69
2023/06/26 01:25:39;;;;;;;;;;;24.60;52.20;;;;;;5047354;28;19999;-69
2023/06/26 01:28:07;;;;;;;;;;;24.60;52.20;;;;;;5056289;28;19986;-69
2023/06/26 01:30:35;;;;;;;;;;;24.60;52.30;;;;;;5055937;28;20005;-70
2023/06/26 01:33:03;;;;;;;;;;;24.50;52.40;;;;;;5054709;28;19986;-70
2023/06/26 01:35:30;;;;;;;;;;;24.50;52.50;;;;;;5059645;28;19995;-69
2023/06/26 01:38:11;;;;;;;;;;;24.50;52.50;;;;;;5053317;28;19980;-69
2023/06/26 01:40:38;;;;;;;;;;;24.40;52.50;;;;;;5059356;28;19984;-69
2023/06/26 01:43:06;;;;;;;;;;;24.40;52.60;;;;;;5056038;28;20006;-69
2023/06/26 01:45:34;;;;;;;;;;;24.30;52.60;;;;;;5052833;28;20049;-70
2023/06/26 01:48:01;;;;;;;;;;;24.30;52.60;;;;;;5057601;28;20429;-70
2023/06/26 01:50:30;;;;;;;;;;;24.30;52.70;;;;;;5055719;28;20044;-70
2023/06/26 01:53:00;;;;;;;;;;;24.20;52.70;;;;;;5058465;28;19983;-69
2023/06/26 01:55:33;;;;;;;;;;;24.20;52.80;;;;;;5059329;28;20001;-69
2023/06/26 01:58:00;;;;;;;;;;;24.20;52.90;;;;;;5054175;28;19979;-69
2023/06/26 02:00:27;;;;;;;;;;;24.10;52.90;;;;;;5049634;28;19999;-69
2023/06/26 02:02:55;;;;;;;;;;;24.10;52.80;;;;;;5053080;28;20000;-69
2023/06/26 02:05:23;;;;;;;;;;;24.10;52.90;;;;;;5053968;28;19995;-68
2023/06/26 02:07:51;;;;;;;;;;;24.00;52.90;;;;;;5057846;28;19987;-70
2023/06/26 02:10:17;;;;;;;;;;;24.00;52.90;;;;;;5054569;28;20420;-68
2023/06/26 02:12:45;;;;;;;;;;;24.00;53.50;;;;;;5043698;28;19990;-69
2023/06/26 02:15:11;;;;;;;;;;;23.90;53.10;;;;;;5054141;28;19995;-69
2023/06/26 02:17:38;;;;;;;;;;;23.90;53.00;;;;;;5058672;28;19979;-69
2023/06/26 02:20:09;;;;;;;;;;;23.80;53.10;;;;;;5049665;28;20061;-70
2023/06/26 02:22:35;;;;;;;;;;;23.80;53.10;;;;;;5053737;28;19998;-69
2023/06/26 02:25:02;;;;;;;;;;;23.80;53.20;;;;;;5057607;28;20086;-69
2023/06/26 02:27:28;;;;;;;;;;;23.80;53.30;;;;;;5056527;28;20347;-69
2023/06/26 02:29:55;;;;;;;;;;;23.70;53.30;;;;;;5055632;28;19975;-69
2023/06/26 02:32:21;;;;;;;;;;;23.70;53.40;;;;;;5057486;28;19992;-68
2023/06/26 02:34:48;;;;;;;;;;;23.70;53.40;;;;;;5051841;28;20048;-70
2023/06/26 02:37:16;;;;;;;;;;;23.70;53.50;;;;;;5050738;28;20041;-69
2023/06/26 02:39:42;;;;;;;;;;;23.60;53.60;;;;;;5061013;28;20047;-69
2023/06/26 02:42:09;;;;;;;;;;;23.60;53.70;;;;;;5061592;28;19982;-69
2023/06/26 02:44:35;;;;;;;;;;;23.60;54.30;;;;;;5054211;28;20002;-69
2023/06/26 02:47:02;;;;;;;;;;;23.50;53.70;;;;;;5061470;28;19992;-69
2023/06/26 02:49:28;;;;;;;;;;;23.50;53.80;;;;;;5054056;28;19995;-70
2023/06/26 02:51:55;;;;;;;;;;;23.50;53.90;;;;;;5057062;28;19976;-69
2023/06/26 02:54:23;;;;;;;;;;;23.40;54.00;;;;;;5058823;28;19992;-69
2023/06/26 02:56:49;;;;;;;;;;;23.40;54.10;;;;;;5053708;28;20009;-69
2023/06/26 02:59:16;;;;;;;;;;;23.30;54.10;;;;;;5057014;28;19977;-69
2023/06/26 03:01:42;;;;;;;;;;;23.30;54.20;;;;;;5047959;28;20050;-69
2023/06/26 03:04:10;;;;;;;;;;;23.30;54.20;;;;;;5059567;28;20000;-69
2023/06/26 03:06:36;;;;;;;;;;;23.30;54.20;;;;;;5051422;28;20055;-69
2023/06/26 03:09:03;;;;;;;;;;;23.20;54.30;;;;;;5047451;28;20368;-69
2023/06/26 03:11:31;;;;;;;;;;;23.20;54.40;;;;;;5057370;28;19975;-69
2023/06/26 03:13:57;;;;;;;;;;;23.20;54.50;;;;;;5052663;28;19995;-69
2023/06/26 03:16:24;;;;;;;;;;;23.10;54.60;;;;;;5050724;28;19999;-69
2023/06/26 03:18:50;;;;;;;;;;;23.10;55.20;;;;;;5056273;28;19998;-69
2023/06/26 03:21:17;;;;;;;;;;;23.10;54.70;;;;;;5056525;28;20878;-68
2023/06/26 03:23:44;;;;;;;;;;;23.00;54.70;;;;;;5049225;28;19991;-70
2023/06/26 03:26:10;;;;;;;;;;;23.00;54.70;;;;;;5054301;28;19979;-70
2023/06/26 03:28:38;;;;;;;;;;;23.00;54.90;;;;;;5054434;28;20636;-69
2023/06/26 03:31:05;;;;;;;;;;;22.90;54.90;;;;;;5055161;28;19996;-69
2023/06/26 03:33:31;;;;;;;;;;;22.90;55.00;;;;;;5046040;28;20029;-69
2023/06/26 03:35:58;;;;;;;;;;;22.90;55.00;;;;;;5042700;28;20033;-70
2023/06/26 03:38:25;;;;;;;;;;;22.80;55.00;;;;;;5046226;28;19979;-69
2023/06/26 03:40:52;;;;;;;;;;;22.80;55.00;;;;;;5055737;28;20011;-69
2023/06/26 03:43:19;;;;;;;;;;;22.80;55.20;;;;;;5060633;28;19991;-70
2023/06/26 03:45:47;;;;;;;;;;;22.80;55.30;;;;;;5046154;28;20002;-69
2023/06/26 03:48:14;;;;;;;;;;;22.70;55.20;;;;;;5059079;28;20668;-70
2023/06/26 03:50:40;;;;;;;;;;;22.70;55.20;;;;;;5047488;28;19994;-70
2023/06/26 03:53:07;;;;;;;;;;;22.70;55.40;;;;;;5051980;28;19975;-69
2023/06/26 03:55:34;;;;;;;;;;;22.60;55.40;;;;;;5057450;28;19991;-69
2023/06/26 03:58:00;;;;;;;;;;;22.60;55.40;;;;;;5058770;28;19979;-70
2023/06/26 04:00:27;;;;;;;;;;;22.60;55.50;;;;;;5051880;28;19996;-69
2023/06/26 04:02:55;;;;;;;;;;;22.50;55.50;;;;;;5057078;28;20508;-69
2023/06/26 04:05:22;;;;;;;;;;;22.50;55.60;;;;;;5049669;28;20000;-68
2023/06/26 04:07:50;;;;;;;;;;;22.50;55.60;;;;;;5053521;28;19975;-69
2023/06/26 04:10:16;;;;;;;;;;;22.50;55.70;;;;;;5058540;28;19983;-69
2023/06/26 04:12:43;;;;;;;;;;;22.40;55.80;;;;;;5066170;28;21120;-69
2023/06/26 04:15:10;;;;;;;;;;;22.40;55.70;;;;;;5053436;28;19995;-68
2023/06/26 04:17:36;;;;;;;;;;;22.40;55.70;;;;;;5048222;28;20040;-69
2023/06/26 04:20:06;;;;;;;;;;;22.40;55.80;;;;;;5051017;28;19982;-69
2023/06/26 04:22:33;;;;;;;;;;;22.40;55.80;;;;;;5051955;28;20411;-69
2023/06/26 04:25:01;;;;;;;;;;;22.30;55.80;;;;;;5055657;28;19996;-69
2023/06/26 04:27:27;;;;;;;;;;;22.30;55.90;;;;;;5054933;28;19980;-70
2023/06/26 04:29:54;;;;;;;;;;;22.30;55.90;;;;;;5058094;28;19980;-69
2023/06/26 04:32:20;;;;;;;;;;;22.30;56.00;;;;;;5061396;28;20388;-69
2023/06/26 04:34:47;;;;;;;;;;;22.30;56.00;;;;;;5047323;28;20002;-69
2023/06/26 04:37:16;;;;;;;;;;;22.20;56.00;;;;;;5051741;28;20356;-70
2023/06/26 04:39:43;;;;;;;;;;;22.20;56.10;;;;;;5059752;28;19982;-69
2023/06/26 04:42:11;;;;;;;;;;;22.20;56.10;;;;;;5055960;28;20449;-69
2023/06/26 04:44:38;;;;;;;;;;;22.20;56.20;;;;;;5056716;28;20047;-69
2023/06/26 04:47:05;;;;;;;;;;;22.20;56.40;;;;;;5053502;28;19991;-69
2023/06/26 04:49:32;;;;;;;;;;;22.20;56.40;;;;;;5054696;28;20766;-69
2023/06/26 04:52:00;;;;;;;;;;;22.10;56.50;;;;;;5057211;28;20071;-68
2023/06/26 04:54:28;;;;;;;;;;;22.10;56.60;;;;;;5058266;28;20119;-70
2023/06/26 04:56:55;;;;;;;;;;;22.10;56.70;;;;;;5058879;28;20021;-69
2023/06/26 04:59:21;;;;;;;;;;;22.10;56.80;;;;;;5056138;28;20014;-69
2023/06/26 05:01:48;;;;;;;;;;;22.10;56.90;;;;;;5055400;28;20496;-70
2023/06/26 05:04:15;;;;;;;;;;;22.10;56.90;;;;;;5062351;28;20982;-69
2023/06/26 05:06:42;;;;;;;;;;;22.00;57.00;;;;;;5054687;28;20891;-69
2023/06/26 05:09:08;;;;;;;;;;;22.10;57.10;;;;;;5051286;28;19971;-69
2023/06/26 05:11:36;;;;;;;;;;;22.00;57.10;;;;;;5052921;28;19975;-69
2023/06/26 05:14:03;;;;;;;;;;;22.00;57.20;;;;;;5055365;28;19991;-69
2023/06/26 05:16:29;;;;;;;;;;;22.00;57.30;;;;;;5051621;28;20388;-69
2023/06/26 05:18:56;;;;;;;;;;;22.00;57.90;;;;;;5062449;28;19975;-68
2023/06/26 05:21:23;;;;;;;;;;;22.00;57.40;;;;;;5061757;28;19979;-70
2023/06/26 05:23:50;;;;;;;;;;;22.00;57.50;;;;;;5061752;28;20061;-69
2023/06/26 05:26:17;;;;;;;;;;;22.00;57.60;;;;;;5048309;28;19979;-69
2023/06/26 05:28:48;;;;;;;;;;;22.00;57.70;;;;;;5051894;28;19983;-69
2023/06/26 05:31:14;;;;;;;;;;;22.00;57.80;;;;;;5059655;28;19996;-69
2023/06/26 05:33:43;;;;;;;;;;;22.00;57.80;;;;;;5059119;28;20032;-69
2023/06/26 05:36:10;;;;;;;;;;;22.00;57.90;;;;;;5054476;28;19983;-68
2023/06/26 05:38:37;;;;;;;;;;;22.00;57.90;;;;;;5053240;28;19983;-69
2023/06/26 05:41:06;;;;;;;;;;;22.00;57.90;;;;;;5055267;28;21456;-69
2023/06/26 05:43:32;;;;;;;;;;;22.10;58.00;;;;;;5054633;28;20003;-69
2023/06/26 05:46:00;;;;;;;;;;;22.10;57.90;;;;;;5057358;28;19998;-70
2023/06/26 05:48:26;;;;;;;;;;;22.10;57.90;;;;;;5062218;28;19983;-68
2023/06/26 05:50:53;;;;;;;;;;;22.10;57.90;;;;;;5052923;28;19984;-69
2023/06/26 05:53:20;;;;;;;;;;;22.10;57.90;;;;;;5059670;28;20426;-69
2023/06/26 05:55:47;;;;;;;;;;;22.10;58.00;;;;;;5049626;28;20000;-69
2023/06/26 05:58:13;;;;;;;;;;;22.10;57.90;;;;;;5049946;28;19982;-69
2023/06/26 06:00:40;;;;;;;;;;;22.20;57.90;;;;;;5057221;28;20003;-69
2023/06/26 06:03:10;;;;;;;;;;;22.10;58.00;;;;;;5055863;28;20086;-69
2023/06/26 06:05:37;;;;;;;;;;;22.10;57.90;;;;;;5057932;28;20682;-70
2023/06/26 06:08:04;;;;;;;;;;;22.20;57.80;;;;;;5056261;28;20030;-69
2023/06/26 06:10:30;;;;;;;;;;;22.20;57.90;;;;;;5060945;28;20365;-69
2023/06/26 06:12:57;;;;;;;;;;;22.20;57.90;;;;;;5051518;28;19976;-69
2023/06/26 06:15:23;;;;;;;;;;;22.30;58.00;;;;;;5060506;28;19999;-67
2023/06/26 06:17:50;;;;;;;;;;;22.30;57.90;;;;;;5054455;28;19980;-69
2023/06/26 06:20:19;;;;;;;;;;;22.30;58.00;;;;;;5049989;28;20037;-69
2023/06/26 06:22:45;;;;;;;;;;;22.30;57.90;;;;;;5049525;28;19986;-69
2023/06/26 06:25:12;;;;;;;;;;;22.30;58.00;;;;;;5048966;28;20049;-69
2023/06/26 06:27:38;;;;;;;;;;;22.30;58.00;;;;;;5050274;28;19984;-69
2023/06/26 06:30:05;;;;;;;;;;;22.30;58.00;;;;;;5046093;28;19976;-71
2023/06/26 06:32:32;;;;;;;;;;;22.40;58.10;;;;;;5048750;28;20041;-70
2023/06/26 06:34:58;;;;;;;;;;;22.40;58.10;;;;;;5054268;28;20451;-70
2023/06/26 06:37:29;;;;;;;;;;;22.40;58.00;;;;;;5052417;28;19987;-69
2023/06/26 06:39:55;;;;;;;;;;;22.40;58.00;;;;;;5056397;28;20058;-69
2023/06/26 06:42:22;;;;;;;;;;;22.40;58.10;;;;;;5056774;28;19976;-69
2023/06/26 06:44:48;;;;;;;;;;;22.50;58.20;;;;;;5055521;28;20010;-70
2023/06/26 06:47:15;;;;;;;;;;;22.50;58.20;;;;;;5063630;28;19998;-70
2023/06/26 06:49:41;;;;;;;;;;;22.50;58.20;;;;;;5049474;28;19979;-69
2023/06/26 06:52:08;;;;;;;;;;;22.50;58.20;;;;;;5053699;28;20022;-69
2023/06/26 06:54:51;;;;;;;;;;;22.50;58.20;;;;;;5051182;28;20037;-69
2023/06/26 06:57:17;;;;;;;;;;;22.50;58.40;;;;;;5049356;28;20041;-69
2023/06/26 06:59:44;;;;;;;;;;;22.60;58.30;;;;;;5059002;28;19983;-69
2023/06/26 07:02:10;;;;;;;;;;;22.60;58.40;;;;;;5056199;28;19991;-69
2023/06/26 07:04:37;;;;;;;;;;;22.60;58.40;;;;;;5053737;28;20732;-69
2023/06/26 07:07:04;;;;;;;;;;;22.60;58.50;;;;;;5055700;28;20022;-70
2023/06/26 07:09:30;;;;;;;;;;;22.60;58.50;;;;;;5055495;28;20544;-69
2023/06/26 07:11:58;;;;;;;;;;;22.70;58.50;;;;;;5052521;28;19979;-69
2023/06/26 07:14:24;;;;;;;;;;;22.70;58.60;;;;;;5062032;28;19997;-68
2023/06/26 07:16:51;;;;;;;;;;;22.70;58.60;;;;;;5053201;28;20486;-69
2023/06/26 07:19:18;;;;;;;;;;;22.70;58.60;;;;;;5058605;28;19975;-69
2023/06/26 07:21:46;;;;;;;;;;;22.80;58.70;;;;;;5050847;28;19983;-69
2023/06/26 07:24:12;;;;;;;;;;;22.80;58.70;;;;;;5057479;28;20101;-70
2023/06/26 07:26:39;;;;;;;;;;;22.90;58.80;;;;;;5055578;28;20033;-69
2023/06/26 07:29:07;;;;;;;;;;;22.90;58.70;;;;;;5053299;28;19979;-70
2023/06/26 07:31:33;;;;;;;;;;;22.90;58.70;;;;;;5047043;28;20225;-69
2023/06/26 07:34:00;;;;;;;;;;;22.90;58.60;;;;;;5063005;28;19995;-69
2023/06/26 07:36:26;;;;;;;;;;;23.00;58.50;;;;;;5043768;28;20229;-68
2023/06/26 07:38:53;;;;;;;;;;;23.00;58.50;;;;;;5050540;28;19979;-69
2023/06/26 07:41:19;;;;;;;;;;;23.00;58.40;;;;;;5054997;28;19980;-69
2023/06/26 07:43:46;;;;;;;;;;;23.00;58.40;;;;;;5061103;28;20032;-69
2023/06/26 07:46:14;;;;;;;;;;;23.10;58.50;;;;;;5050679;28;20654;-70
2023/06/26 07:48:41;;;;;;;;;;;23.10;58.50;;;;;;5052962;28;20380;-69
2023/06/26 07:51:07;;;;;;;;;;;23.20;58.70;;;;;;5054956;28;20056;-69
2023/06/26 07:53:34;;;;;;;;;;;23.20;58.60;;;;;;5056876;28;20306;-69
2023/06/26 07:56:00;;;;;;;;;;;23.20;58.50;;;;;;5056432;28;19980;-69
2023/06/26 07:58:27;;;;;;;;;;;23.30;58.50;;;;;;5058949;28;20032;-69
2023/06/26 08:00:53;;;;;;;;;;;23.30;59.00;;;;;;5053384;28;19999;-70
2023/06/26 08:03:21;;;;;;;;;;;23.30;58.40;;;;;;5057544;28;20450;-69
2023/06/26 08:05:48;;;;;;;;;;;23.40;58.40;;;;;;5055693;28;19999;-69
2023/06/26 08:08:14;;;;;;;;;;;23.40;58.20;;;;;;5056170;28;19976;-69
2023/06/26 08:10:41;;;;;;;;;;;23.40;58.10;;;;;;5053604;28;20817;-70
2023/06/26 08:13:07;;;;;;;;;;;23.50;58.10;;;;;;5055768;28;19976;-68
2023/06/26 08:15:34;;;;;;;;;;;23.50;58.10;;;;;;5052557;28;20006;-69
2023/06/26 08:18:00;;;;;;;;;;;23.50;57.90;;;;;;5054331;28;20026;-69
2023/06/26 08:20:29;;;;;;;;;;;23.60;58.00;;;;;;5053268;28;20686;-69
2023/06/26 08:22:55;;;;;;;;;;;23.60;57.80;;;;;;5057949;28;19986;-71
2023/06/26 08:25:22;;;;;;;;;;;23.70;57.80;;;;;;5047645;28;19995;-69
2023/06/26 08:27:48;;;;;;;;;;;23.70;57.70;;;;;;5053554;28;19991;-69
2023/06/26 08:30:15;;;;;;;;;;;23.80;57.60;;;;;;5053273;28;20062;-69
2023/06/26 08:32:41;;;;;;;;;;;23.80;57.50;;;;;;5048106;28;19983;-69
2023/06/26 08:35:10;;;;;;;;;;;23.90;57.40;;;;;;5049718;28;19991;-69
2023/06/26 08:37:37;;;;;;;;;;;23.90;57.30;;;;;;5049784;28;20041;-69
2023/06/26 08:40:05;;;;;;;;;;;24.00;57.30;;;;;;5056286;28;20040;-69
2023/06/26 08:42:31;;;;;;;;;;;24.10;57.20;;;;;;5051958;28;19976;-69
2023/06/26 08:44:58;;;;;;;;;;;24.10;57.20;;;;;;5049852;28;19996;-70
2023/06/26 08:47:25;;;;;;;;;;;24.10;57.20;;;;;;5042912;28;20704;-69
2023/06/26 08:49:54;;;;;;;;;;;24.20;57.10;;;;;;5055203;28;19975;-69
2023/06/26 08:52:23;;;;;;;;;;;24.20;57.00;;;;;;5049081;28;20046;-70
2023/06/26 08:54:54;;;;;;;;;;;24.30;57.10;;;;;;5051358;28;19995;-71
2023/06/26 08:57:23;;;;;;;;;;;24.30;56.80;;;;;;5049212;28;19975;-70
2023/06/26 08:59:50;;;;;;;;;;;24.40;56.90;;;;;;5053975;28;19986;-69
2023/06/26 09:02:16;;;;;;;;;;;24.40;56.90;;;;;;5053541;28;19991;-69
2023/06/26 09:04:43;;;;;;;;;;;24.50;56.90;;;;;;5045992;28;20001;-71
2023/06/26 09:07:09;;;;;;;;;;;24.50;56.90;;;;;;5056622;28;20453;-70
2023/06/26 09:09:36;;;;;;;;;;;24.60;56.90;;;;;;5053010;28;19975;-69
2023/06/26 09:12:04;;;;;;;;;;;24.70;56.90;;;;;;5051475;28;20025;-69
2023/06/26 09:14:31;;;;;;;;;;;24.70;56.90;;;;;;5051406;28;20614;-70
2023/06/26 09:16:57;;;;;;;;;;;24.70;57.00;;;;;;5053769;28;19991;-70
2023/06/26 09:19:24;;;;;;;;;;;24.70;57.00;;;;;;5051172;28;20468;-69
2023/06/26 09:21:51;;;;;;;;;;;24.80;56.80;;;;;;5055782;28;20327;-70
2023/06/26 09:24:17;;;;;;;;;;;24.80;56.80;;;;;;5059952;28;19995;-69
2023/06/26 09:26:44;;;;;;;;;;;24.90;56.80;;;;;;5058337;28;20002;-70
2023/06/26 09:29:12;;;;;;;;;;;24.90;56.90;;;;;;5057643;28;20480;-69
2023/06/26 09:31:39;;;;;;;;;;;24.90;57.00;;;;;;5051939;28;19995;-70
2023/06/26 09:34:06;;;;;;;;;;;25.00;57.00;;;;;;5049418;28;19998;-70
2023/06/26 09:36:33;;;;;;;;;;;25.00;57.10;;;;;;5048635;28;20009;-71
2023/06/26 09:39:00;;;;;;;;;;;25.10;57.20;;;;;;5053224;28;19976;-70
2023/06/26 09:41:27;;;;;;;;;;;25.10;57.10;;;;;;5056030;28;19979;-70
2023/06/26 09:43:53;;;;;;;;;;;25.10;57.00;;;;;;5057710;28;20443;-69
2023/06/26 09:46:26;;;;;;;;;;;25.20;56.90;;;;;;5058425;28;20088;-70
2023/06/26 09:48:58;;;;;;;;;;;25.20;56.80;;;;;;5053938;28;19979;-70
2023/06/26 09:51:25;;;;;;;;;;;25.20;56.80;;;;;;5055505;28;19983;-70
2023/06/26 09:53:51;;;;;;;;;;;25.30;56.90;;;;;;5050009;28;20057;-70
2023/06/26 09:56:18;;;;;;;;;;;25.40;56.90;;;;;;5056493;28;19980;-70
2023/06/26 09:58:45;;;;;;;;;;;25.40;56.90;;;;;;5050388;28;20465;-69
2023/06/26 10:01:11;;;;;;;;;;;25.50;56.90;;;;;;5060469;28;19999;-70
2023/06/26 10:03:39;;;;;;;;;;;25.50;56.90;;;;;;5054236;28;19980;-70
2023/06/26 10:06:06;;;;;;;;;;;25.50;56.80;;;;;;5058297;28;19995;-70
2023/06/26 10:08:34;;;;;;;;;;;25.60;56.80;;;;;;5064165;28;20049;-69
2023/06/26 10:11:01;;;;;;;;;;;25.60;56.70;;;;;;5058625;28;19979;-70
2023/06/26 10:13:31;;;;;;;;;;;25.60;56.60;;;;;;5059004;28;19975;-71
2023/06/26 10:16:00;;;;;;;;;;;25.70;56.70;;;;;;5048911;28;20469;-70
2023/06/26 10:18:28;;;;;;;;;;;25.80;56.60;;;;;;5056911;28;19975;-69
2023/06/26 10:20:57;;;;;;;;;;;25.80;56.60;;;;;;5050886;28;19987;-70
2023/06/26 10:23:24;;;;;;;;;;;25.90;56.60;;;;;;5057415;28;21372;-70
2023/06/26 10:25:52;;;;;;;;;;;25.90;56.40;;;;;;5045564;28;20000;-70
2023/06/26 10:28:20;;;;;;;;;;;26.00;56.20;;;;;;5052338;28;19975;-70
2023/06/26 10:30:47;;;;;;;;;;;26.10;56.30;;;;;;5050473;28;20057;-69
2023/06/26 10:33:14;;;;;;;;;;;26.20;56.30;;;;;;5059516;28;20010;-70
2023/06/26 10:35:44;;;;;;;;;;;26.20;56.10;;;;;;5053529;28;20010;-70
2023/06/26 10:38:12;;;;;;;;;;;26.30;55.90;;;;;;5053891;28;19980;-69
2023/06/26 10:40:42;;;;;;;;;;;26.30;56.00;;;;;;5053716;28;19991;-70
2023/06/26 10:43:09;;;;;;;;;;;26.40;55.90;;;;;;5051910;28;20453;-69
2023/06/26 10:45:36;;;;;;;;;;;26.40;55.70;;;;;;5058544;28;20068;-69
2023/06/26 10:48:04;;;;;;;;;;;26.50;55.60;;;;;;5058991;28;19980;-70
2023/06/26 10:50:31;;;;;;;;;;;26.60;55.40;;;;;;5042138;28;20343;-70
2023/06/26 10:53:13;;;;;;;;;;;26.60;55.30;;;;;;5052772;28;19979;-70
2023/06/26 10:55:44;;;;;;;;;;;26.70;55.30;;;;;;5042816;28;20077;-70
2023/06/26 10:58:30;;;;;;;;;;;26.70;55.20;;;;;;5057599;28;20053;-69
2023/06/26 11:01:19;;;;;;;;;;;26.80;55.20;;;;;;5053064;28;19999;-70
2023/06/26 11:03:49;;;;;;;;;;;26.90;54.80;;;;;;5061559;28;20033;-69
2023/06/26 11:06:16;;;;;;;;;;;26.90;54.60;;;;;;5061213;28;20676;-69
2023/06/26 11:08:48;;;;;;;;;;;27.00;54.60;;;;;;5059792;28;19979;-70
2023/06/26 11:11:15;;;;;;;;;;;27.00;54.70;;;;;;5057588;28;20401;-70
2023/06/26 11:13:42;;;;;;;;;;;27.00;54.50;;;;;;5051385;28;20006;-69
2023/06/26 11:16:08;;;;;;;;;;;27.10;54.50;;;;;;5051762;28;19999;-69
2023/06/26 11:18:35;;;;;;;;;;;27.10;54.50;;;;;;5054309;28;19986;-69
2023/06/26 11:21:07;;;;;;;;;;;27.10;54.20;;;;;;5052915;28;19992;-69
2023/06/26 11:23:35;;;;;;;;;;;27.10;54.20;;;;;;5058326;28;20070;-70
2023/06/26 11:26:15;;;;;;;;;;;27.10;54.20;;;;;;5050311;28;20006;-70
2023/06/26 11:28:46;;;;;;;;;;;27.10;54.10;;;;;;5047933;28;19982;-70
2023/06/26 11:31:24;;;;;;;;;;;27.10;54.10;;;;;;5048783;28;19998;-70
2023/06/26 11:33:50;;;;;;;;;;;27.20;54.20;;;;;;5049360;28;19986;-70
2023/06/26 11:36:17;;;;;;;;;;;27.20;54.00;;;;;;5051330;28;19979;-69
2023/06/26 11:38:43;;;;;;;;;;;27.20;54.40;;;;;;5053854;28;19986;-70
2023/06/26 11:41:10;;;;;;;;;;;27.20;54.30;;;;;;5050612;28;19975;-69
2023/06/26 11:43:38;;;;;;;;;;;27.20;53.70;;;;;;5055692;28;20015;-69
2023/06/26 11:46:05;;;;;;;;;;;27.20;53.50;;;;;;5052954;28;20012;-70
2023/06/26 11:48:32;;;;;;;;;;;27.30;53.40;;;;;;5050121;28;20062;-70
2023/06/26 11:50:58;;;;;;;;;;;27.30;53.20;;;;;;5043712;28;19979;-69
2023/06/26 11:53:25;;;;;;;;;;;27.40;53.20;;;;;;5052678;28;19983;-69
2023/06/26 11:55:51;;;;;;;;;;;27.40;53.10;;;;;;5049347;28;20371;-70
2023/06/26 11:58:18;;;;;;;;;;;27.50;52.70;;;;;;5048188;28;20438;-70
2023/06/26 12:00:48;;;;;;;;;;;27.60;52.50;;;;;;5046271;28;20602;-70
2023/06/26 12:03:15;;;;;;;;;;;27.70;52.50;;;;;;5046291;28;19976;-69
2023/06/26 12:05:44;;;;;;;;;;;27.70;52.30;;;;;;5052363;28;20085;-70
2023/06/26 12:08:11;;;;;;;;;;;27.80;52.30;;;;;;5055990;28;19976;-70
2023/06/26 12:10:38;;;;;;;;;;;27.90;51.70;;;;;;5052222;28;19977;-70
2023/06/26 12:13:04;;;;;;;;;;;28.00;51.50;;;;;;5054615;28;19987;-70
2023/06/26 12:15:31;;;;;;;;;;;28.10;51.20;;;;;;5047119;28;20004;-70
2023/06/26 12:17:59;;;;;;;;;;;28.10;51.20;;;;;;5055124;28;20382;-69
2023/06/26 12:20:26;;;;;;;;;;;28.10;50.90;;;;;;5052842;28;20046;-70
2023/06/26 12:22:53;;;;;;;;;;;28.20;50.60;;;;;;5052512;28;20072;-70
2023/06/26 12:25:23;;;;;;;;;;;28.20;50.70;;;;;;5057382;28;19996;-69
2023/06/26 12:27:49;;;;;;;;;;;28.30;50.30;;;;;;5052683;28;19980;-70
2023/06/26 12:30:16;;;;;;;;;;;28.20;49.90;;;;;;5048860;28;20029;-70
2023/06/26 12:32:45;;;;;;;;;;;28.30;50.00;;;;;;5052465;28;19993;-70
2023/06/26 12:35:13;;;;;;;;;;;28.30;49.60;;;;;;5052032;28;20086;-70
2023/06/26 12:37:42;;;;;;;;;;;28.30;49.50;;;;;;5047100;28;19984;-70
2023/06/26 12:40:17;;;;;;;;;;;28.30;49.50;;;;;;5053578;28;19986;-70
2023/06/26 12:42:44;;;;;;;;;;;28.40;49.30;;;;;;5054197;28;20536;-70
2023/06/26 12:45:14;;;;;;;;;;;28.40;49.20;;;;;;5054854;28;19991;-69
2023/06/26 12:47:41;;;;;;;;;;;28.40;48.60;;;;;;5055838;28;19979;-69
2023/06/26 12:50:09;;;;;;;;;;;28.50;48.60;;;;;;5052778;28;20873;-70
2023/06/26 12:52:37;;;;;;;;;;;28.50;48.60;;;;;;5058831;28;19976;-70
2023/06/26 12:55:03;;;;;;;;;;;28.50;48.80;;;;;;5066860;28;20042;-70
2023/06/26 12:57:30;;;;;;;;;;;28.60;48.80;;;;;;5059638;28;19975;-69
2023/06/26 12:59:56;;;;;;;;;;;28.60;48.60;;;;;;5056862;28;20069;-71
2023/06/26 13:02:23;;;;;;;;;;;28.70;48.70;;;;;;5054573;28;20003;-70
2023/06/26 13:04:49;;;;;;;;;;;28.70;48.00;;;;;;5063050;28;19995;-70
2023/06/26 13:07:16;;;;;;;;;;;28.80;48.00;;;;;;5053622;28;20006;-70
2023/06/26 13:09:45;;;;;;;;;;;28.80;48.60;;;;;;5059384;28;20776;-69
2023/06/26 13:12:12;;;;;;;;;;;28.90;48.00;;;;;;5060201;28;20434;-70
2023/06/26 13:14:39;;;;;;;;;;;28.90;47.80;;;;;;5063564;28;19993;-69
2023/06/26 13:17:05;;;;;;;;;;;29.00;47.70;;;;;;5052941;28;20513;-69
2023/06/26 13:19:32;;;;;;;;;;;29.00;47.70;;;;;;5058695;28;19972;-70
2023/06/26 13:22:00;;;;;;;;;;;29.00;46.80;;;;;;5052990;28;19981;-70
2023/06/26 13:24:26;;;;;;;;;;;29.10;46.70;;;;;;5063488;28;20019;-70
2023/06/26 13:26:54;;;;;;;;;;;29.10;46.70;;;;;;5052643;28;20000;-71
2023/06/26 13:29:21;;;;;;;;;;;29.10;45.80;;;;;;5060444;28;19980;-71
2023/06/26 13:31:47;;;;;;;;;;;29.20;46.30;;;;;;5052561;28;20885;-70
2023/06/26 13:34:20;;;;;;;;;;;29.20;46.30;;;;;;5059756;28;19992;-70
2023/06/26 13:36:47;;;;;;;;;;;29.20;46.30;;;;;;5055367;28;19991;-70
2023/06/26 13:39:14;;;;;;;;;;;29.30;46.00;;;;;;5055921;28;19984;-71
2023/06/26 13:41:40;;;;;;;;;;;29.30;46.40;;;;;;5051906;28;19981;-70
2023/06/26 13:44:08;;;;;;;;;;;29.30;46.30;;;;;;5054872;28;19997;-70
2023/06/26 13:46:34;;;;;;;;;;;29.40;46.10;;;;;;5058035;28;20022;-71
2023/06/26 13:49:01;;;;;;;;;;;29.40;45.90;;;;;;5058275;28;19976;-70
2023/06/26 13:51:27;;;;;;;;;;;29.40;45.40;;;;;;5053374;28;20453;-70
2023/06/26 13:53:54;;;;;;;;;;;29.40;44.30;;;;;;5059157;28;19998;-69
2023/06/26 13:56:22;;;;;;;;;;;29.40;44.00;;;;;;5048413;28;20066;-70
2023/06/26 13:58:49;;;;;;;;;;;29.50;43.90;;;;;;5051960;28;19986;-70
2023/06/26 14:01:17;;;;;;;;;;;29.50;44.40;;;;;;5059696;28;19999;-70
2023/06/26 14:03:43;;;;;;;;;;;29.60;43.70;;;;;;5060009;28;19988;-71
2023/06/26 14:06:10;;;;;;;;;;;29.60;43.90;;;;;;5056800;28;19992;-69
2023/06/26 14:08:36;;;;;;;;;;;29.60;43.60;;;;;;5055878;28;20050;-70
2023/06/26 14:11:03;;;;;;;;;;;29.70;43.90;;;;;;5062118;28;19983;-71
2023/06/26 14:13:29;;;;;;;;;;;29.70;43.30;;;;;;5047752;28;19976;-69
2023/06/26 14:15:56;;;;;;;;;;;29.70;43.60;;;;;;5057645;28;20002;-71
2023/06/26 14:18:24;;;;;;;;;;;29.70;43.70;;;;;;5051846;28;19976;-70